ADDS METAR Data INFO
IDs: Format: Raw Decoded Include TAF

Data at: 2049 UTC 24 Jun 2018

PALH 241953Z VRB03KT 10SM OVC045 12/06 A2996 RMK AO2 SLP146 T01220061
PALH 241853Z 00000KT 10SM OVC049 12/07 A2997 RMK AO2 SLP149 T01170067
PALH 241753Z 17003KT 10SM OVC048 11/07 A2998 RMK AO2 RAE37 SLP151 P0000 60002 T01110072 10111 20100 56003
PALH 241653Z 00000KT 10SM -RA OVC043 11/07 A2998 RMK AO2 SLP151 P0001 T01060072
PALH 241553Z 00000KT 10SM -RA OVC047 11/07 A2998 RMK AO2 RAB30 SLP152 P0000 T01060072
PALH 241453Z 21003KT 10SM OVC049 10/07 A2999 RMK AO2 RAE50 SLP154 P0001 60001 T01000072 58004
PALH 241353Z VRB03KT 10SM -RA BKN055 OVC070 10/06 A2999 RMK AO2 RAB42 SLP156 P0000 T01000061
PALH 241253Z 18006KT 10SM OVC055 11/04 A3000 RMK AO2 SLP158 T01060044
PALH 241153Z 19006KT 10SM OVC065 11/04 A3000 RMK AO2 SLP158 T01060044 10139 20106 58004
PALH 241053Z 21005KT 10SM OVC065 11/04 A3000 RMK AO2 SLP160 T01060044
PALH 240953Z 22005KT 10SM SCT044 BKN075 11/04 A3001 RMK AO2 SLP162 T01060044
PALH 240853Z 22005KT 10SM FEW065 11/05 A3001 RMK AO2 SLP163 T01110050 401720100 53001
PALH 240753Z 28006KT 10SM CLR 12/07 A3001 RMK AO2 SLP162 T01170072
PALH 240653Z 28008KT 10SM CLR 13/07 A3001 RMK AO2 SLP161 T01280067
PALH 240553Z 27006KT 10SM BKN085 14/06 A3001 RMK AO2 SLP161 T01390061 10172 20139 57005
PALH 240453Z 26006KT 10SM BKN085 15/06 A3001 RMK AO2 SLP163 T01500061
PALH 240353Z 27007KT 10SM OVC085 16/06 A3002 RMK AO2 SLP165 T01610061
PALH 240253Z VRB04KT 10SM CLR 16/06 A3002 RMK AO2 SLP167 T01610061 56010
PALH 240153Z 27008KT 10SM CLR 17/08 A3003 RMK AO2 SLP170 T01670078
PALH 240053Z 30009KT 10SM CLR 16/07 A3004 RMK AO2 SLP173 T01610067
PALH 232353Z 29006KT 10SM CLR 17/07 A3005 RMK AO2 SLP177 T01670067 10167 20111 58013
PALH 232253Z 10SM OVC048 14/06 A3007 RMK AO2 SLP183 T01440061
PALH 232153Z 30006KT 10SM OVC048 15/07 A3008 RMK AO2 SLP187 T01500067
PALH 232053Z 27004KT 10SM FEW026 OVC048 14/07 A3009 RMK AO2 SLP191 T01390067 58011
PALH 231953Z 20003KT 10SM OVC049 12/07 A3011 RMK AO2 SLP197 T01220067
PALH 231853Z 28005KT 10SM FEW031 OVC040 12/07 A3012 RMK AO2 SLP199 T01170072
PALH 231753Z VRB04KT 10SM OVC041 11/06 A3013 RMK AO2 SLP202 T01110061 10111 20100 58005
PALH 231653Z VRB03KT 10SM BKN050 OVC065 11/07 A3013 RMK AO2 SLP205 T01060067
PALH 231553Z VRB06KT 10SM OVC055 10/07 A3014 RMK AO2 SLP205 T01000067
PALH 231453Z 21005KT 10SM SCT029 OVC055 10/07 A3014 RMK AO2 SLP207 T01000067 56006
PALH 231353Z 00000KT 10SM FEW030 OVC060 10/07 A3014 RMK AO2 SLP207 T01000067
PALH 231341Z 00000KT 10SM BKN030 OVC060 10/07 A3014 RMK AO2 T01000067
PALH 231324Z 00000KT 10SM BKN029 OVC060 10/07 A3015 RMK AO2 T01000067
PALH 231253Z 00000KT 10SM FEW047 OVC060 10/07 A3015 RMK AO2 SLP210 T01000072
PALH 231153Z 22004KT 10SM SCT032 OVC041 11/07 A3016 RMK AO2 SLP213 T01060067 10111 20106 53003
PALH 231053Z VRB03KT 10SM BKN032 OVC039 11/07 A3015 RMK AO2 SLP211 T01060067
PALH 230953Z 24005KT 10SM BKN034 OVC040 11/08 A3015 RMK AO2 SLP210 T01060078
PALH 230930Z VRB03KT 10SM FEW020 BKN030 OVC034 11/08 A3015 RMK AO2 T01110078
PALH 230853Z 26003KT 10SM FEW010 OVC029 11/09 A3015 RMK AO2 SLP210 T01110089 401440111 53007